Aviation Digital Data Service (ADDS)

Output produced by METARs form (1338 UTC 26 August 2016)
found at http://aviationweather.gov/adds/metars/
 
KPVD 261130Z 2612/2712 22007KT P6SM FEW010 SCT040 BKN250 
     FM261500 22009KT P6SM VCSH SCT040 BKN080 
     FM262000 25008KT P6SM VCSH SCT040 
     FM262200 26007KT P6SM SCT040 
     FM262300 27007KT P6SM SCT250 
     FM270500 34005KT P6SM FEW250